createdAt,value
2019-02-21T00:03:28.462Z,20.50
2019-02-21T00:08:29.559Z,16.83
2019-02-21T00:13:30.652Z,23.03
2019-02-21T00:18:31.771Z,26.37
2019-02-21T00:23:32.879Z,27.07
2019-02-21T00:28:33.985Z,21.23
2019-02-21T00:33:35.103Z,23.70
2019-02-21T00:38:36.220Z,24.63
2019-02-21T00:43:37.306Z,23.10
2019-02-21T00:48:38.405Z,22.27
2019-02-21T00:53:39.598Z,25.57
2019-02-21T00:58:40.688Z,22.37
2019-02-21T01:03:41.787Z,17.90
2019-02-21T01:08:43.375Z,21.23
2019-02-21T01:13:44.576Z,23.03
2019-02-21T01:18:45.663Z,25.03
2019-02-21T01:23:46.785Z,39.87
2019-02-21T01:28:47.879Z,31.13
2019-02-21T01:33:49.007Z,23.07
2019-02-21T01:38:50.099Z,20.83
2019-02-21T01:43:51.202Z,23.13
2019-02-21T01:48:52.298Z,16.07
2019-02-21T01:53:53.405Z,17.53
2019-02-21T01:58:54.499Z,18.53
2019-02-21T02:03:55.687Z,19.20
2019-02-21T02:08:56.812Z,18.30
2019-02-21T02:13:57.987Z,16.40
2019-02-21T02:18:59.083Z,19.00
2019-02-21T02:24:00.304Z,19.13
2019-02-21T02:29:01.500Z,26.73
2019-02-21T02:34:02.687Z,18.50
2019-02-21T02:39:04.390Z,20.37
2019-02-21T02:44:05.488Z,19.30
2019-02-21T02:49:06.568Z,18.87
2019-02-21T02:54:07.655Z,20.17
2019-02-21T02:59:08.747Z,17.37
2019-02-21T03:04:09.847Z,19.00
2019-02-21T03:09:11.636Z,19.40
2019-02-21T03:14:12.777Z,22.90
2019-02-21T03:19:13.868Z,20.70
2019-02-21T03:24:14.998Z,17.43
2019-02-21T03:29:16.087Z,20.40
2019-02-21T03:34:17.194Z,21.67
2019-02-21T03:39:18.287Z,18.63
2019-02-21T03:44:19.382Z,24.37
2019-02-21T03:49:20.480Z,21.50
2019-02-21T03:54:21.573Z,20.10
2019-02-21T03:59:22.779Z,18.23
2019-02-21T04:04:24.192Z,23.03
2019-02-21T04:09:25.342Z,18.67
2019-02-21T04:14:26.543Z,24.33
2019-02-21T04:19:27.641Z,22.07
2019-02-21T04:24:29.687Z,24.43
2019-02-21T04:29:33.836Z,24.77
2019-02-21T04:34:34.927Z,25.43
2019-02-21T04:39:36.019Z,20.00
2019-02-21T04:44:37.114Z,25.43
2019-02-21T04:49:38.203Z,21.70
2019-02-21T04:54:41.868Z,21.97
2019-02-21T04:59:42.955Z,24.57
2019-02-21T05:04:44.055Z,26.10
2019-02-21T05:09:57.010Z,24.47
2019-02-21T05:14:48.154Z,27.80
2019-02-21T05:19:49.251Z,25.73
2019-02-21T05:24:50.382Z,22.03
2019-02-21T05:29:51.556Z,27.17
2019-02-21T05:35:00.552Z,39.30
2019-02-21T05:40:03.815Z,32.57
2019-02-21T05:45:22.270Z,26.00
2019-02-21T05:50:25.276Z,23.70
2019-02-21T05:55:28.308Z,21.20
2019-02-21T06:00:36.783Z,21.10
2019-02-21T06:05:42.189Z,20.87
2019-02-21T06:10:45.198Z,24.70
2019-02-21T06:15:54.317Z,28.43
2019-02-21T06:21:06.443Z,23.17
2019-02-21T06:26:09.439Z,27.63
2019-02-21T06:31:10.640Z,32.27
2019-02-21T06:36:11.739Z,33.43
2019-02-21T06:41:12.844Z,26.53
2019-02-21T06:46:14.023Z,28.60
2019-02-21T06:51:15.150Z,26.83
2019-02-21T06:56:16.352Z,26.50
2019-02-21T07:01:26.388Z,28.70
2019-02-21T07:06:31.070Z,30.23
2019-02-21T07:11:25.312Z,47.90
2019-02-21T07:16:26.468Z,38.73
2019-02-21T07:21:27.591Z,40.77
2019-02-21T07:26:28.696Z,41.50
2019-02-21T07:31:32.509Z,34.63
2019-02-21T07:36:32.800Z,30.27
2019-02-21T07:41:33.919Z,34.37
2019-02-21T07:46:35.013Z,42.27
2019-02-21T07:51:36.233Z,49.30
2019-02-21T07:56:42.166Z,33.77
2019-02-21T08:01:40.431Z,36.77
2019-02-21T08:06:41.554Z,31.97
2019-02-21T08:11:42.745Z,34.50
2019-02-21T08:16:43.825Z,30.77
2019-02-21T08:21:45.043Z,23.73
2019-02-21T08:26:46.237Z,28.57
2019-02-21T08:31:47.340Z,19.47
2019-02-21T08:36:48.463Z,21.10
2019-02-21T08:41:49.581Z,28.57
2019-02-21T08:46:53.323Z,24.17
2019-02-21T08:51:55.110Z,21.57
2019-02-21T08:56:56.547Z,25.23
2019-02-21T09:01:57.644Z,22.87
2019-02-21T09:06:58.867Z,31.30
2019-02-21T09:12:00.056Z,23.80
2019-02-21T09:17:01.157Z,24.13
2019-02-21T09:22:02.289Z,22.70
2019-02-21T09:27:03.374Z,18.33
2019-02-21T09:32:06.961Z,16.87
2019-02-21T09:37:08.339Z,19.87
2019-02-21T09:42:09.416Z,16.30
2019-02-21T09:47:10.516Z,17.37
2019-02-21T09:52:11.611Z,17.03
2019-02-21T09:57:13.685Z,19.53
2019-02-21T10:02:15.055Z,21.07
2019-02-21T10:07:16.149Z,19.53
2019-02-21T10:12:17.247Z,20.20
2019-02-21T10:17:18.351Z,17.43
2019-02-21T10:22:19.463Z,21.27
2019-02-21T10:27:20.566Z,21.23
2019-02-21T10:32:21.685Z,20.43
2019-02-21T10:37:22.855Z,25.00
2019-02-21T10:42:24.002Z,22.47
2019-02-21T10:47:25.156Z,20.37
2019-02-21T10:52:26.251Z,19.63
2019-02-21T10:57:27.370Z,15.27
2019-02-21T11:02:28.567Z,18.27
2019-02-21T11:07:29.767Z,14.90
2019-02-21T11:12:30.866Z,14.90
2019-02-21T11:17:31.997Z,13.57
2019-02-21T11:22:33.104Z,13.80
2019-02-21T11:27:34.321Z,17.10
2019-02-21T11:32:35.415Z,14.97
2019-02-21T11:37:43.271Z,13.43
2019-02-21T11:42:39.636Z,12.07
2019-02-21T11:47:40.841Z,16.43
2019-02-21T11:52:42.112Z,17.03
2019-02-21T11:57:43.232Z,12.00
2019-02-21T12:02:44.327Z,17.83
2019-02-21T12:07:45.519Z,8.83
2019-02-21T12:12:46.761Z,9.90
2019-02-21T12:17:47.850Z,10.37
2019-02-21T12:22:48.963Z,12.27
2019-02-21T12:27:50.063Z,9.93
2019-02-21T12:32:51.160Z,13.93
2019-02-21T12:37:52.671Z,12.60
2019-02-21T12:42:54.145Z,10.37
2019-02-21T12:47:55.358Z,10.73
2019-02-21T12:52:56.472Z,10.27
2019-02-21T12:57:57.665Z,8.90
2019-02-21T13:02:58.788Z,9.23
2019-02-21T13:07:59.882Z,12.37
2019-02-21T13:13:00.999Z,11.80
2019-02-21T13:18:02.124Z,15.80
2019-02-21T13:23:03.231Z,12.43
2019-02-21T13:28:04.336Z,12.70
2019-02-21T13:33:05.436Z,13.77
2019-02-21T13:38:06.535Z,11.27
2019-02-21T13:43:07.788Z,15.10
2019-02-21T13:48:08.872Z,13.13
2019-02-21T13:53:09.985Z,9.47
2019-02-21T13:58:11.113Z,10.57
2019-02-21T14:03:12.324Z,14.17
2019-02-21T14:08:13.511Z,9.70
2019-02-21T14:13:14.637Z,13.73
2019-02-21T14:18:15.739Z,12.30
2019-02-21T14:23:16.889Z,13.40
2019-02-21T14:28:17.957Z,12.47
2019-02-21T14:33:19.084Z,14.37
2019-02-21T14:38:28.086Z,15.87
2019-02-21T14:43:23.185Z,12.90
2019-02-21T14:48:26.722Z,10.80
2019-02-21T14:53:27.293Z,16.57
2019-02-21T14:58:28.401Z,13.83
2019-02-21T15:03:29.502Z,18.97
2019-02-21T15:08:30.616Z,14.80
2019-02-21T15:13:31.816Z,14.10
2019-02-21T15:18:32.945Z,19.30
2019-02-21T15:23:36.882Z,20.57
2019-02-21T15:28:37.065Z,20.00
2019-02-21T15:33:38.183Z,18.87
2019-02-21T15:38:39.301Z,19.23
2019-02-21T15:43:40.393Z,23.47
2019-02-21T15:48:41.504Z,21.30
2019-02-21T15:53:42.613Z,26.63
2019-02-21T15:58:43.732Z,26.17
2019-02-21T16:03:44.829Z,27.07
2019-02-21T16:08:45.921Z,24.03
2019-02-21T16:13:47.280Z,18.83
2019-02-21T16:18:48.842Z,25.87
2019-02-21T16:23:50.079Z,24.97
2019-02-21T16:28:51.168Z,25.93
2019-02-21T16:33:52.300Z,24.77
2019-02-21T16:38:53.408Z,24.23
2019-02-21T16:43:54.534Z,26.40
2019-02-21T16:48:55.681Z,24.83
2019-02-21T16:53:56.771Z,24.50
2019-02-21T16:58:57.887Z,23.90
2019-02-21T17:03:58.994Z,41.20
2019-02-21T17:09:00.119Z,38.60
2019-02-21T17:14:01.237Z,29.67
2019-02-21T17:19:02.400Z,29.80
2019-02-21T17:24:03.634Z,30.10
2019-02-21T17:29:04.996Z,35.43
2019-02-21T17:34:06.736Z,36.30
2019-02-21T17:39:08.100Z,32.83
2019-02-21T17:44:09.211Z,36.73
2019-02-21T17:49:10.335Z,40.40
2019-02-21T17:54:11.448Z,37.97
2019-02-21T17:59:12.670Z,34.90
2019-02-21T18:04:13.788Z,39.17
2019-02-21T18:09:16.409Z,33.37
2019-02-21T18:14:17.769Z,33.27
2019-02-21T18:19:18.877Z,34.37
2019-02-21T18:24:21.074Z,33.83
2019-02-21T18:29:22.180Z,32.60
2019-02-21T18:34:23.410Z,30.47
2019-02-21T18:39:24.510Z,30.43
2019-02-21T18:44:25.632Z,43.10
2019-02-21T18:49:26.810Z,28.43
2019-02-21T18:54:28.209Z,33.03
2019-02-21T18:59:31.906Z,33.20
2019-02-21T19:04:32.451Z,29.87
2019-02-21T19:09:33.571Z,33.07
2019-02-21T19:14:34.728Z,30.87
2019-02-21T19:19:35.975Z,34.57
2019-02-21T19:24:37.193Z,34.97
2019-02-21T19:29:38.450Z,34.57
2019-02-21T19:34:39.603Z,32.17
2019-02-21T19:39:40.840Z,33.60
2019-02-21T19:44:41.964Z,36.87
2019-02-21T19:49:43.184Z,31.33
2019-02-21T19:54:44.309Z,30.87
2019-02-21T19:59:45.530Z,33.80
2019-02-21T20:04:46.644Z,30.50
2019-02-21T20:09:47.808Z,30.37
2019-02-21T20:14:49.131Z,32.23
2019-02-21T20:19:50.287Z,34.87
2019-02-21T20:24:51.413Z,30.53
2019-02-21T20:29:52.559Z,31.10
2019-02-21T20:34:53.668Z,31.67
2019-02-21T20:39:55.195Z,31.47
2019-02-21T20:44:56.517Z,31.37
2019-02-21T20:49:57.623Z,28.90
2019-02-21T20:54:58.747Z,28.10
2019-02-21T20:59:59.951Z,29.53
2019-02-21T21:05:01.184Z,30.97
2019-02-21T21:10:07.811Z,29.93
2019-02-21T21:15:10.709Z,29.00
2019-02-21T21:20:16.870Z,28.97
2019-02-21T21:25:16.975Z,36.00
2019-02-21T21:30:18.205Z,29.87
2019-02-21T21:35:19.396Z,29.23
2019-02-21T21:40:20.721Z,29.63
2019-02-21T21:45:21.831Z,25.73
2019-02-21T21:50:22.942Z,25.90
2019-02-21T21:55:24.066Z,25.00
2019-02-21T22:00:25.171Z,28.67
2019-02-21T22:05:26.284Z,25.30
2019-02-21T22:10:27.391Z,24.43
2019-02-21T22:15:28.522Z,22.90
2019-02-21T22:20:29.772Z,19.50
2019-02-21T22:25:30.988Z,20.37
2019-02-21T22:30:32.066Z,24.47
2019-02-21T22:35:33.188Z,20.50
2019-02-21T22:40:34.376Z,20.13
2019-02-21T22:45:35.586Z,24.13
2019-02-21T22:50:36.686Z,18.63
2019-02-21T22:55:37.793Z,25.37
2019-02-21T23:00:53.511Z,23.90
2019-02-21T23:06:17.994Z,20.80
2019-02-21T23:11:19.509Z,18.03
2019-02-21T23:16:20.807Z,25.57
2019-02-21T23:21:21.935Z,21.33
2019-02-21T23:26:23.040Z,22.10
2019-02-21T23:31:24.133Z,21.00
2019-02-21T23:36:25.242Z,18.23
2019-02-21T23:41:26.328Z,22.07
2019-02-21T23:46:27.423Z,23.27
2019-02-21T23:51:28.522Z,21.03
2019-02-21T23:56:29.616Z,23.20
